sensor_id;sensor_type;location;lat;lon;timestamp;P1;durP1;ratioP1;P2;durP2;ratioP2
40048;SDS011;54524;55.740;37.544;2024-02-21T00:01:04;6.9;;;6.2;;
40048;SDS011;54524;55.740;37.544;2024-02-21T00:02:05;6.9;;;6.2;;
40048;SDS011;54524;55.740;37.544;2024-02-21T00:03:06;7;;;6.3;;
40048;SDS011;54524;55.740;37.544;2024-02-21T00:04:06;6.9;;;6.2;;
40048;SDS011;54524;55.740;37.544;2024-02-21T00:05:07;6.9;;;6.2;;
40048;SDS011;54524;55.740;37.544;2024-02-21T00:06:07;7;;;6.3;;
40048;SDS011;54524;55.740;37.544;2024-02-21T00:07:08;7.1;;;6.1;;
40048;SDS011;54524;55.740;37.544;2024-02-21T00:08:08;7.1;;;6.1;;
40048;SDS011;54524;55.740;37.544;2024-02-21T00:09:09;7;;;6.1;;
40048;SDS011;54524;55.740;37.544;2024-02-21T00:11:03;8.2;;;7.2;;
40048;SDS011;54524;55.740;37.544;2024-02-21T00:12:04;8.3;;;7.2;;
40048;SDS011;54524;55.740;37.544;2024-02-21T00:13:05;8.2;;;6.6;;
40048;SDS011;54524;55.740;37.544;2024-02-21T00:14:06;8.2;;;6.6;;
40048;SDS011;54524;55.740;37.544;2024-02-21T00:15:07;8.3;;;6.6;;
40048;SDS011;54524;55.740;37.544;2024-02-21T00:16:07;7.9;;;6.8;;
40048;SDS011;54524;55.740;37.544;2024-02-21T00:17:08;7.9;;;6.8;;
40048;SDS011;54524;55.740;37.544;2024-02-21T00:18:08;7.8;;;6.8;;
40048;SDS011;54524;55.740;37.544;2024-02-21T00:19:11;8.2;;;6.9;;
40048;SDS011;54524;55.740;37.544;2024-02-21T00:21:03;8.1;;;6.9;;
40048;SDS011;54524;55.740;37.544;2024-02-21T00:22:03;0;;;0;;
40048;SDS011;54524;55.740;37.544;2024-02-21T00:23:04;9.7;;;8.1;;
40048;SDS011;54524;55.740;37.544;2024-02-21T00:24:05;9.7;;;8.1;;
40048;SDS011;54524;55.740;37.544;2024-02-21T00:25:05;10.7;;;8.4;;
40048;SDS011;54524;55.740;37.544;2024-02-21T00:26:07;10.9;;;8.4;;
40048;SDS011;54524;55.740;37.544;2024-02-21T00:27:08;11;;;8.6;;
40048;SDS011;54524;55.740;37.544;2024-02-21T00:28:08;10.1;;;8.1;;
40048;SDS011;54524;55.740;37.544;2024-02-21T00:29:09;10.2;;;8.1;;
40048;SDS011;54524;55.740;37.544;2024-02-21T00:31:04;9.4;;;7.7;;
40048;SDS011;54524;55.740;37.544;2024-02-21T00:32:05;9.7;;;7.8;;
40048;SDS011;54524;55.740;37.544;2024-02-21T00:33:06;9.6;;;7.7;;
40048;SDS011;54524;55.740;37.544;2024-02-21T00:34:06;11.5;;;9;;
40048;SDS011;54524;55.740;37.544;2024-02-21T00:35:07;11.4;;;9;;
40048;SDS011;54524;55.740;37.544;2024-02-21T00:36:08;11.4;;;9;;
40048;SDS011;54524;55.740;37.544;2024-02-21T00:37:08;9.8;;;8;;
40048;SDS011;54524;55.740;37.544;2024-02-21T00:38:09;9.7;;;8;;
40048;SDS011;54524;55.740;37.544;2024-02-21T00:39:09;9.6;;;8;;
40048;SDS011;54524;55.740;37.544;2024-02-21T00:41:03;9.8;;;7.9;;
40048;SDS011;54524;55.740;37.544;2024-02-21T00:42:04;9.7;;;7.9;;
40048;SDS011;54524;55.740;37.544;2024-02-21T00:43:05;10.4;;;8.2;;
40048;SDS011;54524;55.740;37.544;2024-02-21T00:44:05;10;;;8.1;;
40048;SDS011;54524;55.740;37.544;2024-02-21T00:45:06;10.1;;;8.2;;
40048;SDS011;54524;55.740;37.544;2024-02-21T00:46:08;9.7;;;8;;
40048;SDS011;54524;55.740;37.544;2024-02-21T00:47:09;9.7;;;8;;
40048;SDS011;54524;55.740;37.544;2024-02-21T00:48:10;9.8;;;8.1;;
40048;SDS011;54524;55.740;37.544;2024-02-21T00:49:10;10.2;;;8.5;;
40048;SDS011;54524;55.740;37.544;2024-02-21T00:51:03;10.1;;;8.4;;
40048;SDS011;54524;55.740;37.544;2024-02-21T00:52:04;9.5;;;8.5;;
40048;SDS011;54524;55.740;37.544;2024-02-21T00:53:04;9.5;;;8.5;;
40048;SDS011;54524;55.740;37.544;2024-02-21T00:54:05;9.6;;;8.6;;
40048;SDS011;54524;55.740;37.544;2024-02-21T00:55:06;9.6;;;8.6;;
40048;SDS011;54524;55.740;37.544;2024-02-21T00:56:07;10.9;;;8.5;;
40048;SDS011;54524;55.740;37.544;2024-02-21T00:57:08;10.7;;;8.5;;
40048;SDS011;54524;55.740;37.544;2024-02-21T00:58:08;10.5;;;8.4;;
40048;SDS011;54524;55.740;37.544;2024-02-21T00:59:09;9.8;;;8.6;;
40048;SDS011;54524;55.740;37.544;2024-02-21T01:01:04;9.9;;;8.6;;
40048;SDS011;54524;55.740;37.544;2024-02-21T01:02:04;11.7;;;8.3;;
40048;SDS011;54524;55.740;37.544;2024-02-21T01:03:05;11.7;;;8.4;;
40048;SDS011;54524;55.740;37.544;2024-02-21T01:04:05;11.7;;;8.3;;
40048;SDS011;54524;55.740;37.544;2024-02-21T01:05:06;11.2;;;9.2;;
40048;SDS011;54524;55.740;37.544;2024-02-21T01:06:07;11.1;;;9.3;;
40048;SDS011;54524;55.740;37.544;2024-02-21T01:07:08;11.3;;;9.4;;
40048;SDS011;54524;55.740;37.544;2024-02-21T01:08:08;10.7;;;8.2;;
40048;SDS011;54524;55.740;37.544;2024-02-21T01:09:09;10.9;;;8.2;;
40048;SDS011;54524;55.740;37.544;2024-02-21T01:11:03;12.8;;;10.4;;
40048;SDS011;54524;55.740;37.544;2024-02-21T01:12:04;12.6;;;10.3;;
40048;SDS011;54524;55.740;37.544;2024-02-21T01:13:05;12.5;;;10.3;;
40048;SDS011;54524;55.740;37.544;2024-02-21T01:14:06;13;;;9.7;;
40048;SDS011;54524;55.740;37.544;2024-02-21T01:15:06;13.1;;;9.8;;
40048;SDS011;54524;55.740;37.544;2024-02-21T01:16:07;13.1;;;9.8;;
40048;SDS011;54524;55.740;37.544;2024-02-21T01:17:08;13.3;;;11.1;;
40048;SDS011;54524;55.740;37.544;2024-02-21T01:18:08;13.6;;;11.2;;
40048;SDS011;54524;55.740;37.544;2024-02-21T01:19:09;13.7;;;11.2;;
40048;SDS011;54524;55.740;37.544;2024-02-21T01:21:03;11.6;;;9.3;;
40048;SDS011;54524;55.740;37.544;2024-02-21T01:22:07;11.5;;;9.3;;
40048;SDS011;54524;55.740;37.544;2024-02-21T01:23:07;13.1;;;10.1;;
40048;SDS011;54524;55.740;37.544;2024-02-21T01:24:08;13.2;;;10.2;;
40048;SDS011;54524;55.740;37.544;2024-02-21T01:25:08;12.8;;;10.2;;
40048;SDS011;54524;55.740;37.544;2024-02-21T01:26:09;14.5;;;10.4;;
40048;SDS011;54524;55.740;37.544;2024-02-21T01:27:13;14.4;;;10.3;;
40048;SDS011;54524;55.740;37.544;2024-02-21T01:28:13;14.6;;;10.4;;
40048;SDS011;54524;55.740;37.544;2024-02-21T01:29:14;14.3;;;10.2;;
40048;SDS011;54524;55.740;37.544;2024-02-21T01:31:04;14.1;;;10.2;;
40048;SDS011;54524;55.740;37.544;2024-02-21T01:32:05;14.8;;;10.2;;
40048;SDS011;54524;55.740;37.544;2024-02-21T01:33:05;14.6;;;10.2;;
40048;SDS011;54524;55.740;37.544;2024-02-21T01:34:06;14.3;;;10.1;;
40048;SDS011;54524;55.740;37.544;2024-02-21T01:35:07;11.7;;;9.3;;
40048;SDS011;54524;55.740;37.544;2024-02-21T01:36:08;11.5;;;9.2;;
40048;SDS011;54524;55.740;37.544;2024-02-21T01:37:08;11.4;;;9.1;;
40048;SDS011;54524;55.740;37.544;2024-02-21T01:38:09;11.1;;;9.1;;
40048;SDS011;54524;55.740;37.544;2024-02-21T01:39:10;11.1;;;9.1;;
40048;SDS011;54524;55.740;37.544;2024-02-21T01:41:03;9.8;;;8.6;;
40048;SDS011;54524;55.740;37.544;2024-02-21T01:42:04;9.8;;;8.6;;
40048;SDS011;54524;55.740;37.544;2024-02-21T01:43:14;9.9;;;8.6;;
40048;SDS011;54524;55.740;37.544;2024-02-21T01:44:15;9.2;;;8.2;;
40048;SDS011;54524;55.740;37.544;2024-02-21T01:45:16;9.5;;;8.4;;
40048;SDS011;54524;55.740;37.544;2024-02-21T01:46:16;9.6;;;8.4;;
40048;SDS011;54524;55.740;37.544;2024-02-21T01:47:17;10.8;;;9.5;;
40048;SDS011;54524;55.740;37.544;2024-02-21T01:48:18;10.9;;;9.5;;
40048;SDS011;54524;55.740;37.544;2024-02-21T01:49:19;11;;;9.5;;
40048;SDS011;54524;55.740;37.544;2024-02-21T01:51:03;10.8;;;9;;
40048;SDS011;54524;55.740;37.544;2024-02-21T01:52:04;10.9;;;9.1;;
40048;SDS011;54524;55.740;37.544;2024-02-21T01:53:05;10.8;;;9.1;;
40048;SDS011;54524;55.740;37.544;2024-02-21T01:54:06;8.6;;;7.4;;
40048;SDS011;54524;55.740;37.544;2024-02-21T01:55:07;8.6;;;7.4;;
40048;SDS011;54524;55.740;37.544;2024-02-21T01:56:09;8.4;;;7.4;;
40048;SDS011;54524;55.740;37.544;2024-02-21T01:57:10;9.6;;;7.7;;
40048;SDS011;54524;55.740;37.544;2024-02-21T01:58:10;9.9;;;7.8;;
40048;SDS011;54524;55.740;37.544;2024-02-21T01:59:11;9.9;;;7.7;;
40048;SDS011;54524;55.740;37.544;2024-02-21T02:01:03;9.5;;;8.1;;
40048;SDS011;54524;55.740;37.544;2024-02-21T02:02:04;9.4;;;8.1;;
40048;SDS011;54524;55.740;37.544;2024-02-21T02:03:05;10;;;7.8;;
40048;SDS011;54524;55.740;37.544;2024-02-21T02:04:06;10.1;;;7.9;;
40048;SDS011;54524;55.740;37.544;2024-02-21T02:05:07;9.9;;;7.9;;
40048;SDS011;54524;55.740;37.544;2024-02-21T02:06:08;9.5;;;7.7;;
40048;SDS011;54524;55.740;37.544;2024-02-21T02:07:09;9.6;;;7.7;;
40048;SDS011;54524;55.740;37.544;2024-02-21T02:08:09;9.7;;;7.7;;
40048;SDS011;54524;55.740;37.544;2024-02-21T02:09:10;8.9;;;7.7;;
40048;SDS011;54524;55.740;37.544;2024-02-21T02:11:03;8.7;;;7.6;;
40048;SDS011;54524;55.740;37.544;2024-02-21T02:12:04;8.1;;;7.1;;
40048;SDS011;54524;55.740;37.544;2024-02-21T02:13:05;8.1;;;7.1;;
40048;SDS011;54524;55.740;37.544;2024-02-21T02:14:05;8.2;;;7.1;;
40048;SDS011;54524;55.740;37.544;2024-02-21T02:15:06;7.6;;;6.7;;
40048;SDS011;54524;55.740;37.544;2024-02-21T02:16:07;7.7;;;6.7;;
40048;SDS011;54524;55.740;37.544;2024-02-21T02:17:08;7.7;;;6.7;;
40048;SDS011;54524;55.740;37.544;2024-02-21T02:18:09;8.5;;;7.2;;
40048;SDS011;54524;55.740;37.544;2024-02-21T02:19:10;8.5;;;7.2;;
40048;SDS011;54524;55.740;37.544;2024-02-21T02:21:04;9.2;;;8;;
40048;SDS011;54524;55.740;37.544;2024-02-21T02:22:06;9.5;;;8;;
40048;SDS011;54524;55.740;37.544;2024-02-21T02:23:09;9.5;;;7.9;;
40048;SDS011;54524;55.740;37.544;2024-02-21T02:24:10;8.1;;;7.3;;
40048;SDS011;54524;55.740;37.544;2024-02-21T02:25:10;8.1;;;7.3;;
40048;SDS011;54524;55.740;37.544;2024-02-21T02:26:11;8.1;;;7.3;;
40048;SDS011;54524;55.740;37.544;2024-02-21T02:27:11;10.5;;;7.5;;
40048;SDS011;54524;55.740;37.544;2024-02-21T02:28:12;10.5;;;7.5;;
40048;SDS011;54524;55.740;37.544;2024-02-21T02:29:12;10.6;;;7.5;;
40048;SDS011;54524;55.740;37.544;2024-02-21T02:31:04;9.3;;;7.7;;
40048;SDS011;54524;55.740;37.544;2024-02-21T02:32:05;9.5;;;7.8;;
40048;SDS011;54524;55.740;37.544;2024-02-21T02:33:06;9.5;;;7.7;;
40048;SDS011;54524;55.740;37.544;2024-02-21T02:34:06;8;;;7.2;;
40048;SDS011;54524;55.740;37.544;2024-02-21T02:35:07;8;;;7.2;;
40048;SDS011;54524;55.740;37.544;2024-02-21T02:36:07;8;;;7.2;;
40048;SDS011;54524;55.740;37.544;2024-02-21T02:37:08;9.4;;;7.7;;
40048;SDS011;54524;55.740;37.544;2024-02-21T02:38:09;9.4;;;7.7;;
40048;SDS011;54524;55.740;37.544;2024-02-21T02:39:10;8.8;;;7.7;;
40048;SDS011;54524;55.740;37.544;2024-02-21T02:41:03;8.4;;;7.6;;
40048;SDS011;54524;55.740;37.544;2024-02-21T02:42:04;8.4;;;7.6;;
40048;SDS011;54524;55.740;37.544;2024-02-21T02:43:05;8;;;7.2;;
40048;SDS011;54524;55.740;37.544;2024-02-21T02:44:05;7.9;;;7.1;;
40048;SDS011;54524;55.740;37.544;2024-02-21T02:45:06;8;;;7.2;;
40048;SDS011;54524;55.740;37.544;2024-02-21T02:46:07;7.9;;;7.2;;
40048;SDS011;54524;55.740;37.544;2024-02-21T02:47:08;8.2;;;7.4;;
40048;SDS011;54524;55.740;37.544;2024-02-21T02:48:09;8.1;;;7.3;;
40048;SDS011;54524;55.740;37.544;2024-02-21T02:49:09;9.2;;;7.3;;
40048;SDS011;54524;55.740;37.544;2024-02-21T02:51:03;9.3;;;7.3;;
40048;SDS011;54524;55.740;37.544;2024-02-21T02:52:03;8.5;;;7.6;;
40048;SDS011;54524;55.740;37.544;2024-02-21T02:53:04;8.5;;;7.6;;
40048;SDS011;54524;55.740;37.544;2024-02-21T02:54:04;8.4;;;7.5;;
40048;SDS011;54524;55.740;37.544;2024-02-21T02:55:05;9.3;;;7.4;;
40048;SDS011;54524;55.740;37.544;2024-02-21T02:56:06;9.2;;;7.4;;
40048;SDS011;54524;55.740;37.544;2024-02-21T02:57:07;9.2;;;7.4;;
40048;SDS011;54524;55.740;37.544;2024-02-21T02:58:08;8.7;;;7.8;;
40048;SDS011;54524;55.740;37.544;2024-02-21T02:59:09;8.6;;;7.7;;
40048;SDS011;54524;55.740;37.544;2024-02-21T03:01:04;8.6;;;7.7;;
40048;SDS011;54524;55.740;37.544;2024-02-21T03:02:07;8.6;;;7.7;;
40048;SDS011;54524;55.740;37.544;2024-02-21T03:03:07;8.7;;;7.8;;
40048;SDS011;54524;55.740;37.544;2024-02-21T03:04:08;0;;;0;;
40048;SDS011;54524;55.740;37.544;2024-02-21T03:05:12;9.7;;;7.9;;
40048;SDS011;54524;55.740;37.544;2024-02-21T03:06:13;9.9;;;8;;
40048;SDS011;54524;55.740;37.544;2024-02-21T03:07:15;9.7;;;8.3;;
40048;SDS011;54524;55.740;37.544;2024-02-21T03:08:16;9.6;;;8.2;;
40048;SDS011;54524;55.740;37.544;2024-02-21T03:09:16;9.5;;;8.2;;
40048;SDS011;54524;55.740;37.544;2024-02-21T03:11:03;11.1;;;9.2;;
40048;SDS011;54524;55.740;37.544;2024-02-21T03:12:04;11.4;;;9.1;;
40048;SDS011;54524;55.740;37.544;2024-02-21T03:13:04;11.3;;;9.1;;
40048;SDS011;54524;55.740;37.544;2024-02-21T03:14:05;14.2;;;10.7;;
40048;SDS011;54524;55.740;37.544;2024-02-21T03:15:06;14.1;;;10.6;;
40048;SDS011;54524;55.740;37.544;2024-02-21T03:16:06;13.8;;;10.5;;
40048;SDS011;54524;55.740;37.544;2024-02-21T03:17:07;10.4;;;8.9;;
40048;SDS011;54524;55.740;37.544;2024-02-21T03:18:07;10.5;;;9;;
40048;SDS011;54524;55.740;37.544;2024-02-21T03:19:08;10.9;;;9.1;;
40048;SDS011;54524;55.740;37.544;2024-02-21T03:21:04;10.4;;;8.8;;
40048;SDS011;54524;55.740;37.544;2024-02-21T03:22:05;10.3;;;8.8;;
40048;SDS011;54524;55.740;37.544;2024-02-21T03:23:06;11.4;;;9.2;;
40048;SDS011;54524;55.740;37.544;2024-02-21T03:24:07;11.5;;;9.3;;
40048;SDS011;54524;55.740;37.544;2024-02-21T03:25:08;11.7;;;9.4;;
40048;SDS011;54524;55.740;37.544;2024-02-21T03:26:08;16.7;;;11.4;;
40048;SDS011;54524;55.740;37.544;2024-02-21T03:27:09;16.7;;;11.4;;
40048;SDS011;54524;55.740;37.544;2024-02-21T03:28:09;17.5;;;11.3;;
40048;SDS011;54524;55.740;37.544;2024-02-21T03:29:10;11.1;;;9.2;;
40048;SDS011;54524;55.740;37.544;2024-02-21T03:31:04;11.2;;;9.3;;
40048;SDS011;54524;55.740;37.544;2024-02-21T03:32:04;11.1;;;9.2;;
40048;SDS011;54524;55.740;37.544;2024-02-21T03:33:05;11.1;;;9.2;;
40048;SDS011;54524;55.740;37.544;2024-02-21T03:34:05;11.2;;;9.2;;
40048;SDS011;54524;55.740;37.544;2024-02-21T03:35:06;11.9;;;9.3;;
40048;SDS011;54524;55.740;37.544;2024-02-21T03:36:07;11.8;;;9.3;;
40048;SDS011;54524;55.740;37.544;2024-02-21T03:37:13;11.9;;;9.3;;
40048;SDS011;54524;55.740;37.544;2024-02-21T03:38:14;18.4;;;12.6;;
40048;SDS011;54524;55.740;37.544;2024-02-21T03:39:14;18.7;;;12.7;;
40048;SDS011;54524;55.740;37.544;2024-02-21T03:41:03;26.5;;;18.3;;
40048;SDS011;54524;55.740;37.544;2024-02-21T03:42:04;26.9;;;18.3;;
40048;SDS011;54524;55.740;37.544;2024-02-21T03:43:05;26.9;;;18.3;;
40048;SDS011;54524;55.740;37.544;2024-02-21T03:44:05;14.5;;;10.9;;
40048;SDS011;54524;55.740;37.544;2024-02-21T03:45:06;14.5;;;10.9;;
40048;SDS011;54524;55.740;37.544;2024-02-21T03:46:07;14.5;;;11;;
40048;SDS011;54524;55.740;37.544;2024-02-21T03:47:07;14.8;;;11.4;;
40048;SDS011;54524;55.740;37.544;2024-02-21T03:48:10;14.8;;;11.4;;
40048;SDS011;54524;55.740;37.544;2024-02-21T03:49:11;14.6;;;11.3;;
40048;SDS011;54524;55.740;37.544;2024-02-21T03:51:03;14.8;;;11.9;;
40048;SDS011;54524;55.740;37.544;2024-02-21T03:52:04;14.8;;;11.9;;
40048;SDS011;54524;55.740;37.544;2024-02-21T03:53:05;13.8;;;11.2;;
40048;SDS011;54524;55.740;37.544;2024-02-21T03:54:05;14;;;11.3;;
40048;SDS011;54524;55.740;37.544;2024-02-21T03:55:06;14.1;;;11.4;;
40048;SDS011;54524;55.740;37.544;2024-02-21T03:56:08;15;;;11.9;;
40048;SDS011;54524;55.740;37.544;2024-02-21T03:57:09;15;;;11.9;;
40048;SDS011;54524;55.740;37.544;2024-02-21T03:58:09;15;;;12;;
40048;SDS011;54524;55.740;37.544;2024-02-21T03:59:10;14.8;;;11.9;;
40048;SDS011;54524;55.740;37.544;2024-02-21T04:01:04;11.8;;;9.9;;
40048;SDS011;54524;55.740;37.544;2024-02-21T04:02:04;12;;;9.9;;
40048;SDS011;54524;55.740;37.544;2024-02-21T04:03:08;13.9;;;11;;
40048;SDS011;54524;55.740;37.544;2024-02-21T04:04:09;13.4;;;10.9;;
40048;SDS011;54524;55.740;37.544;2024-02-21T04:05:10;13.4;;;10.9;;
40048;SDS011;54524;55.740;37.544;2024-02-21T04:06:11;17;;;12.4;;
40048;SDS011;54524;55.740;37.544;2024-02-21T04:07:12;17.1;;;12.3;;
40048;SDS011;54524;55.740;37.544;2024-02-21T04:08:13;17.1;;;12.3;;
40048;SDS011;54524;55.740;37.544;2024-02-21T04:09:14;16.5;;;12.3;;
40048;SDS011;54524;55.740;37.544;2024-02-21T04:11:03;16.4;;;12.3;;
40048;SDS011;54524;55.740;37.544;2024-02-21T04:12:04;15.2;;;11.8;;
40048;SDS011;54524;55.740;37.544;2024-02-21T04:13:06;15.3;;;11.9;;
40048;SDS011;54524;55.740;37.544;2024-02-21T04:14:06;15.2;;;11.8;;
40048;SDS011;54524;55.740;37.544;2024-02-21T04:15:07;18.4;;;14;;
40048;SDS011;54524;55.740;37.544;2024-02-21T04:16:08;18.3;;;14;;
40048;SDS011;54524;55.740;37.544;2024-02-21T04:17:09;18.4;;;14;;
40048;SDS011;54524;55.740;37.544;2024-02-21T04:18:09;13.1;;;11.3;;
40048;SDS011;54524;55.740;37.544;2024-02-21T04:19:10;13.3;;;11.4;;
40048;SDS011;54524;55.740;37.544;2024-02-21T04:21:03;17.2;;;11.2;;
40048;SDS011;54524;55.740;37.544;2024-02-21T04:22:04;17.2;;;11.2;;
40048;SDS011;54524;55.740;37.544;2024-02-21T04:23:04;17.2;;;11.3;;
40048;SDS011;54524;55.740;37.544;2024-02-21T04:24:05;16;;;12.8;;
40048;SDS011;54524;55.740;37.544;2024-02-21T04:25:06;16;;;12.8;;
40048;SDS011;54524;55.740;37.544;2024-02-21T04:26:06;16.5;;;12.7;;
40048;SDS011;54524;55.740;37.544;2024-02-21T04:27:07;14.4;;;10.9;;
40048;SDS011;54524;55.740;37.544;2024-02-21T04:28:08;14.3;;;10.9;;
40048;SDS011;54524;55.740;37.544;2024-02-21T04:29:08;14.3;;;10.9;;
40048;SDS011;54524;55.740;37.544;2024-02-21T04:31:04;6.30;;;1.20;;
40048;SDS011;54524;55.740;37.544;2024-02-21T04:32:05;13.4;;;11.2;;
40048;SDS011;54524;55.740;37.544;2024-02-21T04:33:05;13.4;;;11.1;;
40048;SDS011;54524;55.740;37.544;2024-02-21T04:34:06;17.5;;;13.3;;
40048;SDS011;54524;55.740;37.544;2024-02-21T04:35:07;17.5;;;13.3;;
40048;SDS011;54524;55.740;37.544;2024-02-21T04:36:08;17.3;;;13.2;;
40048;SDS011;54524;55.740;37.544;2024-02-21T04:37:09;18.3;;;14;;
40048;SDS011;54524;55.740;37.544;2024-02-21T04:38:10;18.1;;;14;;
40048;SDS011;54524;55.740;37.544;2024-02-21T04:39:11;18.1;;;14;;
40048;SDS011;54524;55.740;37.544;2024-02-21T04:41:03;15.9;;;12.4;;
40048;SDS011;54524;55.740;37.544;2024-02-21T04:42:04;15.9;;;12.5;;
40048;SDS011;54524;55.740;37.544;2024-02-21T04:43:05;15.1;;;12;;
40048;SDS011;54524;55.740;37.544;2024-02-21T04:44:05;15;;;11.9;;
40048;SDS011;54524;55.740;37.544;2024-02-21T04:45:07;15;;;11.9;;
40048;SDS011;54524;55.740;37.544;2024-02-21T04:46:07;15.5;;;12.6;;
40048;SDS011;54524;55.740;37.544;2024-02-21T04:47:08;15.6;;;12.7;;
40048;SDS011;54524;55.740;37.544;2024-02-21T04:48:08;15.3;;;12.5;;
40048;SDS011;54524;55.740;37.544;2024-02-21T04:49:09;15.1;;;12.2;;
40048;SDS011;54524;55.740;37.544;2024-02-21T04:51:03;15.2;;;12;;
40048;SDS011;54524;55.740;37.544;2024-02-21T04:52:04;16.7;;;13.1;;
40048;SDS011;54524;55.740;37.544;2024-02-21T04:53:05;16.6;;;13;;
40048;SDS011;54524;55.740;37.544;2024-02-21T04:54:05;17;;;13.2;;
40048;SDS011;54524;55.740;37.544;2024-02-21T04:55:06;14.3;;;11.5;;
40048;SDS011;54524;55.740;37.544;2024-02-21T04:56:07;14.2;;;11.5;;
40048;SDS011;54524;55.740;37.544;2024-02-21T04:57:08;14.2;;;11.5;;
40048;SDS011;54524;55.740;37.544;2024-02-21T04:58:10;13.9;;;11.4;;
40048;SDS011;54524;55.740;37.544;2024-02-21T04:59:11;13.8;;;11.4;;
40048;SDS011;54524;55.740;37.544;2024-02-21T05:01:03;14.3;;;10.8;;
40048;SDS011;54524;55.740;37.544;2024-02-21T05:02:04;13.9;;;10.8;;
40048;SDS011;54524;55.740;37.544;2024-02-21T05:03:04;13.9;;;10.8;;
40048;SDS011;54524;55.740;37.544;2024-02-21T05:04:05;21.6;;;15;;
40048;SDS011;54524;55.740;37.544;2024-02-21T05:05:06;21.4;;;14.9;;
40048;SDS011;54524;55.740;37.544;2024-02-21T05:06:07;21.1;;;14.8;;
40048;SDS011;54524;55.740;37.544;2024-02-21T05:07:08;26.3;;;17.2;;
40048;SDS011;54524;55.740;37.544;2024-02-21T05:08:09;26.1;;;17.1;;
40048;SDS011;54524;55.740;37.544;2024-02-21T05:09:10;26.3;;;17.3;;
40048;SDS011;54524;55.740;37.544;2024-02-21T05:11:03;21.6;;;15.4;;
40048;SDS011;54524;55.740;37.544;2024-02-21T05:12:03;21.4;;;15.3;;
40048;SDS011;54524;55.740;37.544;2024-02-21T05:13:04;21.3;;;15.6;;
40048;SDS011;54524;55.740;37.544;2024-02-21T05:14:04;21.5;;;15.8;;
40048;SDS011;54524;55.740;37.544;2024-02-21T05:15:05;21.8;;;15.9;;
40048;SDS011;54524;55.740;37.544;2024-02-21T05:16:06;26.3;;;18.7;;
40048;SDS011;54524;55.740;37.544;2024-02-21T05:17:07;26.2;;;18.7;;
40048;SDS011;54524;55.740;37.544;2024-02-21T05:18:07;26.6;;;18.9;;
40048;SDS011;54524;55.740;37.544;2024-02-21T05:19:08;27.3;;;19.7;;
40048;SDS011;54524;55.740;37.544;2024-02-21T05:21:03;27.2;;;19.6;;
40048;SDS011;54524;55.740;37.544;2024-02-21T05:22:04;15.9;;;12.2;;
40048;SDS011;54524;55.740;37.544;2024-02-21T05:23:05;16;;;12.2;;
40048;SDS011;54524;55.740;37.544;2024-02-21T05:24:05;16.2;;;12.1;;
40048;SDS011;54524;55.740;37.544;2024-02-21T05:25:06;15.4;;;11.9;;
40048;SDS011;54524;55.740;37.544;2024-02-21T05:26:07;15.3;;;11.8;;
40048;SDS011;54524;55.740;37.544;2024-02-21T05:27:08;14.9;;;11.9;;
40048;SDS011;54524;55.740;37.544;2024-02-21T05:28:08;18.4;;;12.6;;
40048;SDS011;54524;55.740;37.544;2024-02-21T05:29:09;18.4;;;12.6;;
40048;SDS011;54524;55.740;37.544;2024-02-21T05:31:05;16.7;;;12.5;;
40048;SDS011;54524;55.740;37.544;2024-02-21T05:32:06;27.7;;;18.4;;
40048;SDS011;54524;55.740;37.544;2024-02-21T05:33:06;28;;;18.6;;
40048;SDS011;54524;55.740;37.544;2024-02-21T05:34:07;28;;;18.6;;
40048;SDS011;54524;55.740;37.544;2024-02-21T05:35:08;18.6;;;14.3;;
40048;SDS011;54524;55.740;37.544;2024-02-21T05:36:09;18.2;;;14.3;;
40048;SDS011;54524;55.740;37.544;2024-02-21T05:37:10;18.6;;;14.3;;
40048;SDS011;54524;55.740;37.544;2024-02-21T05:38:10;29.1;;;17;;
40048;SDS011;54524;55.740;37.544;2024-02-21T05:39:12;28.4;;;16.7;;
40048;SDS011;54524;55.740;37.544;2024-02-21T05:41:03;21.4;;;15.2;;
40048;SDS011;54524;55.740;37.544;2024-02-21T05:42:04;21.6;;;15.2;;
40048;SDS011;54524;55.740;37.544;2024-02-21T05:43:04;21.4;;;15.2;;
40048;SDS011;54524;55.740;37.544;2024-02-21T05:44:05;36.8;;;24.6;;
40048;SDS011;54524;55.740;37.544;2024-02-21T05:45:06;36.5;;;24.7;;
40048;SDS011;54524;55.740;37.544;2024-02-21T05:46:07;36.2;;;24.7;;
40048;SDS011;54524;55.740;37.544;2024-02-21T05:47:08;26.9;;;18.8;;
40048;SDS011;54524;55.740;37.544;2024-02-21T05:48:10;26.8;;;18.8;;
40048;SDS011;54524;55.740;37.544;2024-02-21T05:49:10;26.9;;;18.6;;
40048;SDS011;54524;55.740;37.544;2024-02-21T05:51:03;18.5;;;14.1;;
40048;SDS011;54524;55.740;37.544;2024-02-21T05:52:03;18.6;;;14.1;;
40048;SDS011;54524;55.740;37.544;2024-02-21T05:53:04;20;;;15.2;;
40048;SDS011;54524;55.740;37.544;2024-02-21T05:54:05;19.9;;;15.2;;
40048;SDS011;54524;55.740;37.544;2024-02-21T05:55:06;20;;;15.2;;
40048;SDS011;54524;55.740;37.544;2024-02-21T05:56:09;32.4;;;19.9;;
40048;SDS011;54524;55.740;37.544;2024-02-21T05:57:10;32.5;;;19.9;;
40048;SDS011;54524;55.740;37.544;2024-02-21T05:58:11;32;;;19.7;;
40048;SDS011;54524;55.740;37.544;2024-02-21T05:59:13;31;;;19.5;;
40048;SDS011;54524;55.740;37.544;2024-02-21T06:01:03;30.7;;;19.4;;
40048;SDS011;54524;55.740;37.544;2024-02-21T06:02:04;0;;;0;;
40048;SDS011;54524;55.740;37.544;2024-02-21T06:03:05;44.8;;;26.5;;
40048;SDS011;54524;55.740;37.544;2024-02-21T06:04:06;44.9;;;26.6;;
40048;SDS011;54524;55.740;37.544;2024-02-21T06:05:06;57.6;;;33;;
40048;SDS011;54524;55.740;37.544;2024-02-21T06:06:07;56.2;;;32.4;;
40048;SDS011;54524;55.740;37.544;2024-02-21T06:07:08;55.8;;;32.4;;
40048;SDS011;54524;55.740;37.544;2024-02-21T06:08:08;26.3;;;18.1;;
40048;SDS011;54524;55.740;37.544;2024-02-21T06:09:09;26.6;;;18.3;;
40048;SDS011;54524;55.740;37.544;2024-02-21T06:11:03;46.3;;;28;;
40048;SDS011;54524;55.740;37.544;2024-02-21T06:12:04;45.4;;;27.7;;
40048;SDS011;54524;55.740;37.544;2024-02-21T06:13:04;45.3;;;27.6;;
40048;SDS011;54524;55.740;37.544;2024-02-21T06:14:05;26.7;;;17.6;;
40048;SDS011;54524;55.740;37.544;2024-02-21T06:15:06;26.7;;;17.6;;
40048;SDS011;54524;55.740;37.544;2024-02-21T06:16:07;26.2;;;17.4;;
40048;SDS011;54524;55.740;37.544;2024-02-21T06:17:08;27.7;;;18.2;;
40048;SDS011;54524;55.740;37.544;2024-02-21T06:18:08;27.9;;;18.2;;
40048;SDS011;54524;55.740;37.544;2024-02-21T06:19:09;28.4;;;18.3;;
40048;SDS011;54524;55.740;37.544;2024-02-21T06:21:04;35.4;;;21.2;;
40048;SDS011;54524;55.740;37.544;2024-02-21T06:22:05;35.5;;;21.3;;
40048;SDS011;54524;55.740;37.544;2024-02-21T06:23:08;34.5;;;21.7;;
40048;SDS011;54524;55.740;37.544;2024-02-21T06:24:08;34.2;;;21.5;;
40048;SDS011;54524;55.740;37.544;2024-02-21T06:25:09;34.5;;;21.5;;
40048;SDS011;54524;55.740;37.544;2024-02-21T06:26:10;30.1;;;19.2;;
40048;SDS011;54524;55.740;37.544;2024-02-21T06:27:11;30.1;;;19.2;;
40048;SDS011;54524;55.740;37.544;2024-02-21T06:28:11;30;;;19.1;;
40048;SDS011;54524;55.740;37.544;2024-02-21T06:29:12;87.9;;;46.5;;
40048;SDS011;54524;55.740;37.544;2024-02-21T06:31:03;87;;;46.2;;
40048;SDS011;54524;55.740;37.544;2024-02-21T06:32:04;86.5;;;46;;
40048;SDS011;54524;55.740;37.544;2024-02-21T06:33:04;57.8;;;33.6;;
40048;SDS011;54524;55.740;37.544;2024-02-21T06:34:05;57.9;;;33.5;;
40048;SDS011;54524;55.740;37.544;2024-02-21T06:35:06;57.8;;;33.6;;
40048;SDS011;54524;55.740;37.544;2024-02-21T06:36:06;40.1;;;24.4;;
40048;SDS011;54524;55.740;37.544;2024-02-21T06:37:07;39.5;;;24.2;;
40048;SDS011;54524;55.740;37.544;2024-02-21T06:38:07;39.1;;;23.9;;
40048;SDS011;54524;55.740;37.544;2024-02-21T06:39:08;27.3;;;18.7;;
40048;SDS011;54524;55.740;37.544;2024-02-21T06:41:03;27.3;;;18.8;;
40048;SDS011;54524;55.740;37.544;2024-02-21T06:42:04;43.7;;;28.9;;
40048;SDS011;54524;55.740;37.544;2024-02-21T06:43:05;44.4;;;29.1;;